sensor_id;sensor_type;location;lat;lon;timestamp;pressure;altitude;pressure_sealevel;temperature;humidity
69060;BME280;56135;37.534;-122.308;2022-12-16T00:01:22;101978.94;;;9.27;100.00
69060;BME280;56135;37.534;-122.308;2022-12-16T00:03:49;101978.84;;;9.20;100.00
69060;BME280;56135;37.534;-122.308;2022-12-16T00:06:15;101976.09;;;9.10;100.00
69060;BME280;56135;37.534;-122.308;2022-12-16T00:08:41;101981.25;;;9.04;100.00
69060;BME280;56135;37.534;-122.308;2022-12-16T00:11:07;101976.72;;;8.94;100.00
69060;BME280;56135;37.534;-122.308;2022-12-16T00:13:34;101974.88;;;8.85;100.00
69060;BME280;56135;37.534;-122.308;2022-12-16T00:16:06;101975.63;;;8.78;100.00
69060;BME280;56135;37.534;-122.308;2022-12-16T00:18:32;101976.41;;;8.71;100.00
69060;BME280;56135;37.534;-122.308;2022-12-16T00:20:58;101975.41;;;8.62;100.00
69060;BME280;56135;37.534;-122.308;2022-12-16T00:23:25;101978.75;;;8.52;100.00
69060;BME280;56135;37.534;-122.308;2022-12-16T00:25:51;101978.59;;;8.44;100.00
69060;BME280;56135;37.534;-122.308;2022-12-16T00:28:18;101973.19;;;8.33;100.00
69060;BME280;56135;37.534;-122.308;2022-12-16T00:30:47;101971.25;;;8.23;100.00
69060;BME280;56135;37.534;-122.308;2022-12-16T00:33:13;101979.00;;;8.14;100.00
69060;BME280;56135;37.534;-122.308;2022-12-16T00:35:39;101970.09;;;8.06;100.00
69060;BME280;56135;37.534;-122.308;2022-12-16T00:38:05;101975.19;;;7.96;100.00
69060;BME280;56135;37.534;-122.308;2022-12-16T00:40:31;101977.66;;;7.87;100.00
69060;BME280;56135;37.534;-122.308;2022-12-16T00:42:56;101979.19;;;7.76;100.00
69060;BME280;56135;37.534;-122.308;2022-12-16T00:45:22;101983.41;;;7.66;100.00
69060;BME280;56135;37.534;-122.308;2022-12-16T00:47:48;101982.34;;;7.56;100.00
69060;BME280;56135;37.534;-122.308;2022-12-16T00:50:15;101989.09;;;7.43;100.00
69060;BME280;56135;37.534;-122.308;2022-12-16T00:52:41;101995.03;;;7.34;100.00
69060;BME280;56135;37.534;-122.308;2022-12-16T00:55:06;101993.09;;;7.24;100.00
69060;BME280;56135;37.534;-122.308;2022-12-16T00:57:32;101992.03;;;7.16;100.00
69060;BME280;56135;37.534;-122.308;2022-12-16T00:59:58;101997.03;;;7.04;100.00
69060;BME280;56135;37.534;-122.308;2022-12-16T01:02:24;102002.09;;;6.94;100.00
69060;BME280;56135;37.534;-122.308;2022-12-16T01:04:50;102007.09;;;6.83;100.00
69060;BME280;56135;37.534;-122.308;2022-12-16T01:07:36;102005.06;;;6.72;100.00
69060;BME280;56135;37.534;-122.308;2022-12-16T01:10:02;102011.88;;;6.63;100.00
69060;BME280;56135;37.534;-122.308;2022-12-16T01:12:29;102009.00;;;6.53;100.00
69060;BME280;56135;37.534;-122.308;2022-12-16T01:14:54;102015.84;;;6.46;100.00
69060;BME280;56135;37.534;-122.308;2022-12-16T01:17:20;102016.50;;;6.37;100.00
69060;BME280;56135;37.534;-122.308;2022-12-16T01:19:46;102019.75;;;6.28;100.00
69060;BME280;56135;37.534;-122.308;2022-12-16T01:22:12;102015.16;;;6.18;100.00
69060;BME280;56135;37.534;-122.308;2022-12-16T01:24:38;102029.72;;;6.07;100.00
69060;BME280;56135;37.534;-122.308;2022-12-16T01:27:04;102027.56;;;5.92;100.00
69060;BME280;56135;37.534;-122.308;2022-12-16T01:29:30;102031.84;;;5.90;100.00
69060;BME280;56135;37.534;-122.308;2022-12-16T01:31:56;102037.00;;;5.85;100.00
69060;BME280;56135;37.534;-122.308;2022-12-16T01:34:22;102041.22;;;5.80;100.00
69060;BME280;56135;37.534;-122.308;2022-12-16T01:36:48;102041.72;;;5.66;100.00
69060;BME280;56135;37.534;-122.308;2022-12-16T01:39:14;102045.84;;;5.58;100.00
69060;BME280;56135;37.534;-122.308;2022-12-16T01:41:39;102045.63;;;5.50;100.00
69060;BME280;56135;37.534;-122.308;2022-12-16T01:44:22;102056.78;;;5.43;100.00
69060;BME280;56135;37.534;-122.308;2022-12-16T01:47:21;102064.34;;;5.34;100.00
69060;BME280;56135;37.534;-122.308;2022-12-16T01:49:44;102060.38;;;5.18;100.00
69060;BME280;56135;37.534;-122.308;2022-12-16T01:52:13;102053.38;;;5.17;100.00
69060;BME280;56135;37.534;-122.308;2022-12-16T01:54:44;102053.25;;;5.12;100.00
69060;BME280;56135;37.534;-122.308;2022-12-16T01:57:14;102055.66;;;5.06;100.00
69060;BME280;56135;37.534;-122.308;2022-12-16T01:59:42;102058.09;;;5.00;100.00
69060;BME280;56135;37.534;-122.308;2022-12-16T02:02:10;102058.75;;;4.93;100.00
69060;BME280;56135;37.534;-122.308;2022-12-16T02:04:36;102051.63;;;4.89;100.00
69060;BME280;56135;37.534;-122.308;2022-12-16T02:07:22;102050.47;;;4.79;100.00
69060;BME280;56135;37.534;-122.308;2022-12-16T02:09:48;102052.00;;;4.72;100.00
69060;BME280;56135;37.534;-122.308;2022-12-16T02:12:25;102055.09;;;4.60;100.00
69060;BME280;56135;37.534;-122.308;2022-12-16T02:15:00;102054.97;;;4.57;100.00
69060;BME280;56135;37.534;-122.308;2022-12-16T02:33:09;102062.19;;;4.11;100.00
69060;BME280;56135;37.534;-122.308;2022-12-16T02:35:39;102066.31;;;4.05;100.00
69060;BME280;56135;37.534;-122.308;2022-12-16T02:38:12;102064.53;;;4.04;100.00
69060;BME280;56135;37.534;-122.308;2022-12-16T02:41:16;102072.97;;;3.96;100.00
69060;BME280;56135;37.534;-122.308;2022-12-16T02:46:17;102069.25;;;3.90;100.00
69060;BME280;56135;37.534;-122.308;2022-12-16T02:48:43;102067.31;;;3.84;100.00
69060;BME280;56135;37.534;-122.308;2022-12-16T02:51:10;102069.81;;;3.81;100.00
69060;BME280;56135;37.534;-122.308;2022-12-16T02:53:36;102062.81;;;3.80;100.00
69060;BME280;56135;37.534;-122.308;2022-12-16T02:56:06;102062.69;;;3.77;100.00
69060;BME280;56135;37.534;-122.308;2022-12-16T02:58:56;102073.03;;;3.74;100.00
69060;BME280;56135;37.534;-122.308;2022-12-16T03:01:35;102068.53;;;3.70;100.00
69060;BME280;56135;37.534;-122.308;2022-12-16T03:06:43;102073.47;;;3.62;100.00
69060;BME280;56135;37.534;-122.308;2022-12-16T03:09:11;102078.59;;;3.59;100.00
69060;BME280;56135;37.534;-122.308;2022-12-16T03:11:39;102080.22;;;3.57;100.00
69060;BME280;56135;37.534;-122.308;2022-12-16T03:14:07;102081.03;;;3.54;100.00
69060;BME280;56135;37.534;-122.308;2022-12-16T03:16:36;102078.34;;;3.53;100.00
69060;BME280;56135;37.534;-122.308;2022-12-16T03:19:02;102087.16;;;3.55;100.00
69060;BME280;56135;37.534;-122.308;2022-12-16T03:21:34;102088.78;;;3.53;100.00
69060;BME280;56135;37.534;-122.308;2022-12-16T03:24:02;102080.84;;;3.49;100.00
69060;BME280;56135;37.534;-122.308;2022-12-16T03:26:36;102080.84;;;3.49;100.00
69060;BME280;56135;37.534;-122.308;2022-12-16T03:29:20;102079.19;;;3.52;100.00
69060;BME280;56135;37.534;-122.308;2022-12-16T03:31:55;102074.03;;;3.53;100.00
69060;BME280;56135;37.534;-122.308;2022-12-16T03:34:35;102086.97;;;3.50;100.00
69060;BME280;56135;37.534;-122.308;2022-12-16T03:37:05;102092.19;;;3.50;100.00
69060;BME280;56135;37.534;-122.308;2022-12-16T03:39:33;102091.31;;;3.49;100.00
69060;BME280;56135;37.534;-122.308;2022-12-16T03:42:00;102090.44;;;3.49;100.00
69060;BME280;56135;37.534;-122.308;2022-12-16T03:44:27;102091.25;;;3.48;100.00
69060;BME280;56135;37.534;-122.308;2022-12-16T03:46:53;102091.34;;;3.51;100.00
69060;BME280;56135;37.534;-122.308;2022-12-16T03:49:20;102094.03;;;3.53;100.00
69060;BME280;56135;37.534;-122.308;2022-12-16T03:51:45;102095.66;;;3.49;100.00
69060;BME280;56135;37.534;-122.308;2022-12-16T03:54:11;102085.91;;;3.45;100.00
69060;BME280;56135;37.534;-122.308;2022-12-16T03:56:37;102092.06;;;3.47;100.00
69060;BME280;56135;37.534;-122.308;2022-12-16T03:59:03;102089.50;;;3.48;100.00
69060;BME280;56135;37.534;-122.308;2022-12-16T04:01:29;102084.19;;;3.45;100.00
69060;BME280;56135;37.534;-122.308;2022-12-16T04:03:54;102086.75;;;3.44;100.00
69060;BME280;56135;37.534;-122.308;2022-12-16T04:06:20;102087.47;;;3.40;100.00
69060;BME280;56135;37.534;-122.308;2022-12-16T04:08:46;102081.31;;;3.39;100.00
69060;BME280;56135;37.534;-122.308;2022-12-16T04:11:12;102089.13;;;3.38;100.00
69060;BME280;56135;37.534;-122.308;2022-12-16T04:13:57;102086.44;;;3.36;100.00
69060;BME280;56135;37.534;-122.308;2022-12-16T04:16:41;102087.31;;;3.37;100.00
69060;BME280;56135;37.534;-122.308;2022-12-16T04:19:27;102089.00;;;3.34;100.00
69060;BME280;56135;37.534;-122.308;2022-12-16T04:22:14;102089.00;;;3.34;100.00
69060;BME280;56135;37.534;-122.308;2022-12-16T04:25:02;102092.34;;;3.30;100.00
69060;BME280;56135;37.534;-122.308;2022-12-16T04:27:30;102087.16;;;3.32;100.00
69060;BME280;56135;37.534;-122.308;2022-12-16T04:29:55;102087.94;;;3.29;100.00
69060;BME280;56135;37.534;-122.308;2022-12-16T04:32:40;102089.53;;;3.26;100.00
69060;BME280;56135;37.534;-122.308;2022-12-16T04:35:24;102087.75;;;3.25;100.00
69060;BME280;56135;37.534;-122.308;2022-12-16T04:38:08;102092.91;;;3.23;100.00
69060;BME280;56135;37.534;-122.308;2022-12-16T04:40:52;102093.72;;;3.22;100.00
69060;BME280;56135;37.534;-122.308;2022-12-16T04:43:36;102089.28;;;3.20;100.00
69060;BME280;56135;37.534;-122.308;2022-12-16T04:46:20;102099.66;;;3.18;100.00
69060;BME280;56135;37.534;-122.308;2022-12-16T04:49:23;102091.84;;;3.18;100.00
69060;BME280;56135;37.534;-122.308;2022-12-16T04:52:07;102093.50;;;3.16;100.00
69060;BME280;56135;37.534;-122.308;2022-12-16T04:54:51;102090.72;;;3.11;100.00
69060;BME280;56135;37.534;-122.308;2022-12-16T04:57:35;102100.22;;;3.09;100.00
69060;BME280;56135;37.534;-122.308;2022-12-16T05:00:19;102096.59;;;3.06;100.00
69060;BME280;56135;37.534;-122.308;2022-12-16T05:03:03;102098.16;;;3.02;100.00
69060;BME280;56135;37.534;-122.308;2022-12-16T05:05:47;102098.00;;;2.97;100.00
69060;BME280;56135;37.534;-122.308;2022-12-16T05:08:31;102102.25;;;2.95;100.00
69060;BME280;56135;37.534;-122.308;2022-12-16T05:11:15;102104.00;;;2.95;100.00
69060;BME280;56135;37.534;-122.308;2022-12-16T05:13:59;102102.97;;;2.91;100.00
69060;BME280;56135;37.534;-122.308;2022-12-16T05:16:43;102108.91;;;2.87;100.00
69060;BME280;56135;37.534;-122.308;2022-12-16T05:19:27;102107.81;;;2.82;100.00
69060;BME280;56135;37.534;-122.308;2022-12-16T05:22:11;102109.50;;;2.80;100.00
69060;BME280;56135;37.534;-122.308;2022-12-16T05:24:55;102112.97;;;2.80;100.00
69060;BME280;56135;37.534;-122.308;2022-12-16T05:27:39;102113.75;;;2.78;100.00
69060;BME280;56135;37.534;-122.308;2022-12-16T05:30:23;102107.56;;;2.76;100.00
69060;BME280;56135;37.534;-122.308;2022-12-16T05:33:07;102106.50;;;2.71;100.00
69060;BME280;56135;37.534;-122.308;2022-12-16T05:35:51;102107.16;;;2.66;100.00
69060;BME280;56135;37.534;-122.308;2022-12-16T05:38:35;102105.34;;;2.64;100.00
69060;BME280;56135;37.534;-122.308;2022-12-16T05:41:18;102108.56;;;2.58;100.00
69060;BME280;56135;37.534;-122.308;2022-12-16T05:44:02;102106.72;;;2.56;100.00
69060;BME280;56135;37.534;-122.308;2022-12-16T05:46:46;102113.56;;;2.52;100.00
69060;BME280;56135;37.534;-122.308;2022-12-16T05:49:30;102116.16;;;2.52;100.00
69060;BME280;56135;37.534;-122.308;2022-12-16T05:52:14;102112.66;;;2.52;100.00
69060;BME280;56135;37.534;-122.308;2022-12-16T05:54:58;102115.19;;;2.50;100.00
69060;BME280;56135;37.534;-122.308;2022-12-16T05:57:42;102114.22;;;2.48;100.00
69060;BME280;56135;37.534;-122.308;2022-12-16T06:00:26;102108.06;;;2.46;100.00
69060;BME280;56135;37.534;-122.308;2022-12-16T06:03:10;102111.63;;;2.48;100.00
69060;BME280;56135;37.534;-122.308;2022-12-16T06:05:54;102123.78;;;2.47;100.00
69060;BME280;56135;37.534;-122.308;2022-12-16T06:08:37;102122.06;;;2.48;100.00
69060;BME280;56135;37.534;-122.308;2022-12-16T06:11:21;102128.31;;;2.52;100.00
69060;BME280;56135;37.534;-122.308;2022-12-16T06:14:05;102126.50;;;2.50;100.00
69060;BME280;56135;37.534;-122.308;2022-12-16T06:16:49;102127.28;;;2.48;100.00
69060;BME280;56135;37.534;-122.308;2022-12-16T06:19:33;102124.59;;;2.46;100.00
69060;BME280;56135;37.534;-122.308;2022-12-16T06:22:17;102120.34;;;2.48;100.00
69060;BME280;56135;37.534;-122.308;2022-12-16T06:25:01;102125.50;;;2.47;100.00
69060;BME280;56135;37.534;-122.308;2022-12-16T06:27:51;102125.44;;;2.45;100.00
69060;BME280;56135;37.534;-122.308;2022-12-16T06:30:36;102132.38;;;2.45;100.00
69060;BME280;56135;37.534;-122.308;2022-12-16T06:33:20;102130.50;;;2.42;100.00
69060;BME280;56135;37.534;-122.308;2022-12-16T06:36:04;102140.88;;;2.41;100.00
69060;BME280;56135;37.534;-122.308;2022-12-16T06:38:48;102138.09;;;2.36;100.00
69060;BME280;56135;37.534;-122.308;2022-12-16T06:41:32;102140.44;;;2.30;100.00
69060;BME280;56135;37.534;-122.308;2022-12-16T06:44:16;102140.38;;;2.28;100.00
69060;BME280;56135;37.534;-122.308;2022-12-16T06:47:00;102141.88;;;2.23;100.00
69060;BME280;56135;37.534;-122.308;2022-12-16T06:49:44;102152.16;;;2.20;100.00
69060;BME280;56135;37.534;-122.308;2022-12-16T06:52:28;102145.19;;;2.19;100.00
69060;BME280;56135;37.534;-122.308;2022-12-16T06:55:12;102146.06;;;2.20;100.00
69060;BME280;56135;37.534;-122.308;2022-12-16T06:57:57;102149.41;;;2.17;100.00
69060;BME280;56135;37.534;-122.308;2022-12-16T07:00:41;102141.59;;;2.17;100.00
69060;BME280;56135;37.534;-122.308;2022-12-16T07:03:25;102147.63;;;2.16;100.00
69060;BME280;56135;37.534;-122.308;2022-12-16T07:06:09;102142.28;;;2.13;100.00
69060;BME280;56135;37.534;-122.308;2022-12-16T07:08:53;102140.56;;;2.13;100.00
69060;BME280;56135;37.534;-122.308;2022-12-16T07:11:37;102138.66;;;2.09;100.00
69060;BME280;56135;37.534;-122.308;2022-12-16T07:14:21;102137.66;;;2.06;100.00
69060;BME280;56135;37.534;-122.308;2022-12-16T07:17:05;102141.06;;;2.05;100.00
69060;BME280;56135;37.534;-122.308;2022-12-16T07:19:49;102141.81;;;2.02;100.00
69060;BME280;56135;37.534;-122.308;2022-12-16T07:22:33;102137.22;;;1.96;100.00
69060;BME280;56135;37.534;-122.308;2022-12-16T07:25:17;102139.91;;;1.98;100.00
69060;BME280;56135;37.534;-122.308;2022-12-16T07:28:01;102138.88;;;1.94;100.00
69060;BME280;56135;37.534;-122.308;2022-12-16T07:30:45;102137.06;;;1.93;100.00
69060;BME280;56135;37.534;-122.308;2022-12-16T07:33:29;102140.44;;;1.91;100.00
69060;BME280;56135;37.534;-122.308;2022-12-16T07:36:13;102144.75;;;1.90;100.00
69060;BME280;56135;37.534;-122.308;2022-12-16T07:38:57;102139.31;;;1.86;100.00
69060;BME280;56135;37.534;-122.308;2022-12-16T07:41:41;102135.91;;;1.87;100.00
69060;BME280;56135;37.534;-122.308;2022-12-16T07:44:25;102143.72;;;1.87;100.00
69060;BME280;56135;37.534;-122.308;2022-12-16T07:47:09;102147.09;;;1.84;100.00
69060;BME280;56135;37.534;-122.308;2022-12-16T07:49:53;102137.56;;;1.85;100.00
69060;BME280;56135;37.534;-122.308;2022-12-16T07:52:37;102131.38;;;1.82;100.00
69060;BME280;56135;37.534;-122.308;2022-12-16T07:55:20;102133.09;;;1.82;100.00
69060;BME280;56135;37.534;-122.308;2022-12-16T07:58:04;102131.31;;;1.81;100.00
69060;BME280;56135;37.534;-122.308;2022-12-16T08:00:48;102133.84;;;1.79;100.00
69060;BME280;56135;37.534;-122.308;2022-12-16T08:03:32;102126.09;;;1.81;100.00
69060;BME280;56135;37.534;-122.308;2022-12-16T08:06:16;102123.50;;;1.81;100.00
69060;BME280;56135;37.534;-122.308;2022-12-16T08:09:00;102125.97;;;1.78;100.00
69060;BME280;56135;37.534;-122.308;2022-12-16T08:11:44;102121.03;;;1.84;100.00
69060;BME280;56135;37.534;-122.308;2022-12-16T08:14:28;102118.63;;;1.89;100.00
69060;BME280;56135;37.534;-122.308;2022-12-16T08:17:12;102120.22;;;1.85;100.00
69060;BME280;56135;37.534;-122.308;2022-12-16T08:19:56;102110.53;;;1.82;100.00
69060;BME280;56135;37.534;-122.308;2022-12-16T08:22:40;102109.59;;;1.80;100.00
69060;BME280;56135;37.534;-122.308;2022-12-16T08:25:24;102113.91;;;1.80;100.00
69060;BME280;56135;37.534;-122.308;2022-12-16T08:28:08;102112.03;;;1.77;100.00
69060;BME280;56135;37.534;-122.308;2022-12-16T08:30:52;102124.19;;;1.77;100.00
69060;BME280;56135;37.534;-122.308;2022-12-16T08:33:36;102122.47;;;1.77;100.00
69060;BME280;56135;37.534;-122.308;2022-12-16T08:36:20;102118.06;;;1.76;100.00
69060;BME280;56135;37.534;-122.308;2022-12-16T08:39:04;102126.63;;;1.74;100.00
69060;BME280;56135;37.534;-122.308;2022-12-16T08:41:47;102128.22;;;1.70;100.00
69060;BME280;56135;37.534;-122.308;2022-12-16T08:44:31;102123.97;;;1.72;100.00
69060;BME280;56135;37.534;-122.308;2022-12-16T08:47:15;102123.03;;;1.70;100.00
69060;BME280;56135;37.534;-122.308;2022-12-16T08:49:59;102120.25;;;1.67;100.00
69060;BME280;56135;37.534;-122.308;2022-12-16T08:52:43;102127.13;;;1.65;100.00
69060;BME280;56135;37.534;-122.308;2022-12-16T08:55:28;102130.47;;;1.62;100.00
69060;BME280;56135;37.534;-122.308;2022-12-16T08:58:11;102120.88;;;1.61;100.00
69060;BME280;56135;37.534;-122.308;2022-12-16T09:00:56;102119.94;;;1.59;100.00
69060;BME280;56135;37.534;-122.308;2022-12-16T09:03:39;102125.03;;;1.58;100.00
69060;BME280;56135;37.534;-122.308;2022-12-16T09:06:23;102128.38;;;1.55;100.00
69060;BME280;56135;37.534;-122.308;2022-12-16T09:09:08;102127.50;;;1.55;100.00
69060;BME280;56135;37.534;-122.308;2022-12-16T09:11:52;102121.34;;;1.53;100.00
69060;BME280;56135;37.534;-122.308;2022-12-16T09:14:36;102120.44;;;1.52;100.00
69060;BME280;56135;37.534;-122.308;2022-12-16T09:17:20;102124.84;;;1.53;100.00
69060;BME280;56135;37.534;-122.308;2022-12-16T09:20:04;102127.38;;;1.52;100.00
69060;BME280;56135;37.534;-122.308;2022-12-16T09:22:49;102131.59;;;1.49;100.00
69060;BME280;56135;37.534;-122.308;2022-12-16T09:25:32;102131.53;;;1.48;100.00
69060;BME280;56135;37.534;-122.308;2022-12-16T09:28:16;102127.16;;;1.47;100.00
69060;BME280;56135;37.534;-122.308;2022-12-16T09:31:00;102126.28;;;1.46;100.00
69060;BME280;56135;37.534;-122.308;2022-12-16T09:33:44;102129.75;;;1.47;100.00
69060;BME280;56135;37.534;-122.308;2022-12-16T09:36:28;102126.28;;;1.46;100.00
69060;BME280;56135;37.534;-122.308;2022-12-16T09:39:12;102140.16;;;1.47;100.00
69060;BME280;56135;37.534;-122.308;2022-12-16T09:42:05;102132.41;;;1.48;100.00
69060;BME280;56135;37.534;-122.308;2022-12-16T09:45:17;102134.09;;;1.46;100.00
69060;BME280;56135;37.534;-122.308;2022-12-16T09:48:07;102134.91;;;1.45;100.00
69060;BME280;56135;37.534;-122.308;2022-12-16T09:50:57;102139.16;;;1.43;100.00
69060;BME280;56135;37.534;-122.308;2022-12-16T09:53:45;102132.34;;;1.47;100.00
69060;BME280;56135;37.534;-122.308;2022-12-16T09:56:32;102136.63;;;1.45;100.00
69060;BME280;56135;37.534;-122.308;2022-12-16T09:59:19;102129.50;;;1.41;100.00
69060;BME280;56135;37.534;-122.308;2022-12-16T10:02:12;102126.94;;;1.42;100.00
69060;BME280;56135;37.534;-122.308;2022-12-16T10:04:56;102137.19;;;1.39;100.00
69060;BME280;56135;37.534;-122.308;2022-12-16T10:07:41;102138.31;;;1.44;100.00
69060;BME280;56135;37.534;-122.308;2022-12-16T10:16:30;102136.31;;;1.39;100.00
69060;BME280;56135;37.534;-122.308;2022-12-16T10:19:37;102138.13;;;1.40;100.00
69060;BME280;56135;37.534;-122.308;2022-12-16T10:25:22;102141.47;;;1.37;100.00
69060;BME280;56135;37.534;-122.308;2022-12-16T10:28:16;102140.56;;;1.37;100.00
69060;BME280;56135;37.534;-122.308;2022-12-16T10:31:01;102143.84;;;1.32;100.00
69060;BME280;56135;37.534;-122.308;2022-12-16T10:33:47;102142.88;;;1.30;100.00
69060;BME280;56135;37.534;-122.308;2022-12-16T10:36:32;102148.84;;;1.28;100.00
69060;BME280;56135;37.534;-122.308;2022-12-16T10:39:22;102142.50;;;1.23;100.00
69060;BME280;56135;37.534;-122.308;2022-12-16T10:42:12;102152.72;;;1.18;100.00
69060;BME280;56135;37.534;-122.308;2022-12-16T10:45:00;102148.25;;;1.15;100.00
69060;BME280;56135;37.534;-122.308;2022-12-16T10:47:45;102153.38;;;1.14;100.00
69060;BME280;56135;37.534;-122.308;2022-12-16T10:50:29;102150.63;;;1.11;100.00
69060;BME280;56135;37.534;-122.308;2022-12-16T10:53:14;102155.69;;;1.08;100.00
69060;BME280;56135;37.534;-122.308;2022-12-16T10:56:02;102158.13;;;1.05;100.00
69060;BME280;56135;37.534;-122.308;2022-12-16T10:58:55;102163.13;;;1.00;100.00
69060;BME280;56135;37.534;-122.308;2022-12-16T11:01:41;102160.44;;;0.98;100.00
69060;BME280;56135;37.534;-122.308;2022-12-16T11:04:38;102153.31;;;0.94;100.00
69060;BME280;56135;37.534;-122.308;2022-12-16T11:07:23;102164.44;;;0.92;100.00
69060;BME280;56135;37.534;-122.308;2022-12-16T11:13:13;102153.59;;;0.82;100.00
69060;BME280;56135;37.534;-122.308;2022-12-16T11:16:08;102153.41;;;0.79;100.00
69060;BME280;56135;37.534;-122.308;2022-12-16T11:18:52;102149.78;;;0.76;100.00
69060;BME280;56135;37.534;-122.308;2022-12-16T11:21:36;102154.16;;;0.77;100.00
69060;BME280;56135;37.534;-122.308;2022-12-16T11:24:20;102149.78;;;0.76;100.00
69060;BME280;56135;37.534;-122.308;2022-12-16T11:27:05;102157.59;;;0.76;100.00
69060;BME280;56135;37.534;-122.308;2022-12-16T11:29:56;102150.66;;;0.76;100.00
69060;BME280;56135;37.534;-122.308;2022-12-16T11:32:42;102147.00;;;0.73;100.00
69060;BME280;56135;37.534;-122.308;2022-12-16T11:35:28;102143.53;;;0.72;100.00
69060;BME280;56135;37.534;-122.308;2022-12-16T11:38:26;102149.63;;;0.73;100.00
69060;BME280;56135;37.534;-122.308;2022-12-16T11:41:15;102136.53;;;0.71;100.00
69060;BME280;56135;37.534;-122.308;2022-12-16T11:43:59;102143.47;;;0.71;100.00
69060;BME280;56135;37.534;-122.308;2022-12-16T11:46:45;102132.06;;;0.69;100.00
69060;BME280;56135;37.534;-122.308;2022-12-16T11:49:31;102131.19;;;0.68;100.00
69060;BME280;56135;37.534;-122.308;2022-12-16T11:52:16;102131.94;;;0.65;100.00
69060;BME280;56135;37.534;-122.308;2022-12-16T11:57:46;102136.06;;;0.62;100.00
69060;BME280;56135;37.534;-122.308;2022-12-16T12:00:33;102130.72;;;0.59;100.00
69060;BME280;56135;37.534;-122.308;2022-12-16T12:03:33;102128.88;;;0.56;100.00
69060;BME280;56135;37.534;-122.308;2022-12-16T12:09:14;102125.28;;;0.54;100.00
69060;BME280;56135;37.534;-122.308;2022-12-16T12:14:48;102133.16;;;0.56;100.00
69060;BME280;56135;37.534;-122.308;2022-12-16T12:23:21;102130.66;;;0.57;100.00
69060;BME280;56135;37.534;-122.308;2022-12-16T12:28:54;102129.75;;;0.57;100.00
69060;BME280;56135;37.534;-122.308;2022-12-16T12:31:47;102130.56;;;0.56;100.00
69060;BME280;56135;37.534;-122.308;2022-12-16T12:37:54;102134.50;;;0.47;100.00
69060;BME280;56135;37.534;-122.308;2022-12-16T12:46:32;102132.53;;;0.43;100.00
69060;BME280;56135;37.534;-122.308;2022-12-16T12:52:11;102130.03;;;0.45;100.00
69060;BME280;56135;37.534;-122.308;2022-12-16T12:58:01;102136.34;;;0.50;100.00
69060;BME280;56135;37.534;-122.308;2022-12-16T13:00:47;102129.53;;;0.52;100.00
69060;BME280;56135;37.534;-122.308;2022-12-16T13:06:20;102135.53;;;0.51;100.00
69060;BME280;56135;37.534;-122.308;2022-12-16T13:09:25;102133.75;;;0.50;100.00
69060;BME280;56135;37.534;-122.308;2022-12-16T13:14:56;102134.50;;;0.47;100.00
69060;BME280;56135;37.534;-122.308;2022-12-16T13:20:44;102134.34;;;0.44;100.00
69060;BME280;56135;37.534;-122.308;2022-12-16T13:26:16;102141.00;;;0.39;100.00
69060;BME280;56135;37.534;-122.308;2022-12-16T13:34:58;102145.31;;;0.39;100.00
69060;BME280;56135;37.534;-122.308;2022-12-16T13:37:50;102150.69;;;0.42;100.00
69060;BME280;56135;37.534;-122.308;2022-12-16T13:40:46;102155.06;;;0.43;100.00
69060;BME280;56135;37.534;-122.308;2022-12-16T13:44:13;102156.75;;;0.42;100.00
69060;BME280;56135;37.534;-122.308;2022-12-16T13:46:43;102158.53;;;0.43;100.00
69060;BME280;56135;37.534;-122.308;2022-12-16T13:49:46;102163.00;;;0.46;100.00
69060;BME280;56135;37.534;-122.308;2022-12-16T13:52:34;102163.00;;;0.46;100.00
69060;BME280;56135;37.534;-122.308;2022-12-16T13:55:28;102165.75;;;0.49;100.00
69060;BME280;56135;37.534;-122.308;2022-12-16T13:58:20;102169.34;;;0.51;100.00
69060;BME280;56135;37.534;-122.308;2022-12-16T14:01:10;102158.94;;;0.51;100.00
69060;BME280;56135;37.534;-122.308;2022-12-16T14:03:55;102163.34;;;0.52;100.00
69060;BME280;56135;37.534;-122.308;2022-12-16T14:06:40;102165.22;;;0.55;100.00
69060;BME280;56135;37.534;-122.308;2022-12-16T14:09:37;102167.88;;;0.56;100.00
69060;BME280;56135;37.534;-122.308;2022-12-16T14:15:23;102154.06;;;0.57;100.00
69060;BME280;56135;37.534;-122.308;2022-12-16T14:21:16;102156.66;;;0.57;100.00
69060;BME280;56135;37.534;-122.308;2022-12-16T14:24:13;102159.94;;;0.53;100.00
69060;BME280;56135;37.534;-122.308;2022-12-16T14:27:04;102160.75;;;0.52;100.00
69060;BME280;56135;37.534;-122.308;2022-12-16T14:29:54;102156.34;;;0.51;100.00
69060;BME280;56135;37.534;-122.308;2022-12-16T14:32:37;102154.41;;;0.47;100.00
69060;BME280;56135;37.534;-122.308;2022-12-16T14:35:22;102155.88;;;0.42;100.00
69060;BME280;56135;37.534;-122.308;2022-12-16T14:38:24;102160.94;;;0.39;100.00
69060;BME280;56135;37.534;-122.308;2022-12-16T14:41:12;102152.41;;;0.41;100.00
69060;BME280;56135;37.534;-122.308;2022-12-16T14:43:56;102154.09;;;0.41;100.00
69060;BME280;56135;37.534;-122.308;2022-12-16T14:46:40;102148.88;;;0.41;100.00
69060;BME280;56135;37.534;-122.308;2022-12-16T14:49:25;102150.00;;;0.46;100.00
69060;BME280;56135;37.534;-122.308;2022-12-16T14:52:14;102147.34;;;0.44;100.00
69060;BME280;56135;37.534;-122.308;2022-12-16T14:54:59;102149.06;;;0.44;100.00
69060;BME280;56135;37.534;-122.308;2022-12-16T14:57:43;102149.06;;;0.44;100.00